sensor_id;sensor_type;location;lat;lon;timestamp;pressure;altitude;pressure_sealevel;temperature;humidity
3444;BME280;1736;52.068;6.968;2023-01-26T00:01:28;102007.69;;;-1.42;100.00
3444;BME280;1736;52.068;6.968;2023-01-26T00:03:55;102005.94;;;-1.40;100.00
3444;BME280;1736;52.068;6.968;2023-01-26T00:06:23;101998.97;;;-1.41;100.00
3444;BME280;1736;52.068;6.968;2023-01-26T00:08:51;102001.59;;;-1.41;100.00
3444;BME280;1736;52.068;6.968;2023-01-26T00:11:19;102004.13;;;-1.35;100.00
3444;BME280;1736;52.068;6.968;2023-01-26T00:13:48;102002.41;;;-1.36;100.00
3444;BME280;1736;52.068;6.968;2023-01-26T00:16:15;101998.91;;;-1.35;100.00
3444;BME280;1736;52.068;6.968;2023-01-26T00:18:43;101994.50;;;-1.30;100.00
3444;BME280;1736;52.068;6.968;2023-01-26T00:21:12;101995.44;;;-1.35;100.00
3444;BME280;1736;52.068;6.968;2023-01-26T00:23:39;101990.16;;;-1.29;100.00
3444;BME280;1736;52.068;6.968;2023-01-26T00:26:07;101991.06;;;-1.32;100.00
3444;BME280;1736;52.068;6.968;2023-01-26T00:28:34;101981.56;;;-1.36;100.00
3444;BME280;1736;52.068;6.968;2023-01-26T00:31:02;101979.00;;;-1.37;100.00
3444;BME280;1736;52.068;6.968;2023-01-26T00:33:29;101968.56;;;-1.37;100.00
3444;BME280;1736;52.068;6.968;2023-01-26T00:35:57;101974.72;;;-1.43;100.00
3444;BME280;1736;52.068;6.968;2023-01-26T00:38:23;101968.53;;;-1.34;100.00
3444;BME280;1736;52.068;6.968;2023-01-26T00:40:50;101966.00;;;-1.39;100.00
3444;BME280;1736;52.068;6.968;2023-01-26T00:43:17;101967.72;;;-1.41;100.00
3444;BME280;1736;52.068;6.968;2023-01-26T00:45:43;101955.53;;;-1.36;100.00
3444;BME280;1736;52.068;6.968;2023-01-26T00:48:10;101958.06;;;-1.33;100.00
3444;BME280;1736;52.068;6.968;2023-01-26T00:50:36;101953.84;;;-1.38;100.00
3444;BME280;1736;52.068;6.968;2023-01-26T00:53:04;101959.06;;;-1.40;100.00
3444;BME280;1736;52.068;6.968;2023-01-26T00:55:31;101945.16;;;-1.39;100.00
3444;BME280;1736;52.068;6.968;2023-01-26T00:57:58;101941.78;;;-1.44;100.00
3444;BME280;1736;52.068;6.968;2023-01-26T01:00:25;101944.34;;;-1.42;100.00
3444;BME280;1736;52.068;6.968;2023-01-26T01:02:52;101944.34;;;-1.42;100.00
3444;BME280;1736;52.068;6.968;2023-01-26T01:05:20;101940.03;;;-1.45;100.00
3444;BME280;1736;52.068;6.968;2023-01-26T01:07:47;101937.31;;;-1.36;100.00
3444;BME280;1736;52.068;6.968;2023-01-26T01:10:16;101933.88;;;-1.41;100.00
3444;BME280;1736;52.068;6.968;2023-01-26T01:12:43;101935.63;;;-1.40;100.00
3444;BME280;1736;52.068;6.968;2023-01-26T01:15:10;101937.34;;;-1.39;100.00
3444;BME280;1736;52.068;6.968;2023-01-26T01:17:36;101939.91;;;-1.36;100.00
3444;BME280;1736;52.068;6.968;2023-01-26T01:20:04;101931.28;;;-1.41;100.00
3444;BME280;1736;52.068;6.968;2023-01-26T01:22:31;101932.16;;;-1.39;100.00
3444;BME280;1736;52.068;6.968;2023-01-26T01:24:58;101935.63;;;-1.40;100.00
3444;BME280;1736;52.068;6.968;2023-01-26T01:27:26;101931.34;;;-1.44;100.00
3444;BME280;1736;52.068;6.968;2023-01-26T01:29:52;101928.69;;;-1.41;100.00
3444;BME280;1736;52.068;6.968;2023-01-26T01:32:19;101936.59;;;-1.47;100.00
3444;BME280;1736;52.068;6.968;2023-01-26T01:34:46;101932.31;;;-1.49;100.00
3444;BME280;1736;52.068;6.968;2023-01-26T01:37:13;101928.78;;;-1.47;100.00
3444;BME280;1736;52.068;6.968;2023-01-26T01:39:39;101927.91;;;-1.46;100.00
3444;BME280;1736;52.068;6.968;2023-01-26T01:42:06;101931.34;;;-1.44;100.00
3444;BME280;1736;52.068;6.968;2023-01-26T01:44:35;101927.88;;;-1.43;100.00
3444;BME280;1736;52.068;6.968;2023-01-26T01:47:04;101919.94;;;-1.37;100.00
3444;BME280;1736;52.068;6.968;2023-01-26T01:49:33;101926.03;;;-1.38;100.00
3444;BME280;1736;52.068;6.968;2023-01-26T01:52:04;101925.19;;;-1.38;100.00
3444;BME280;1736;52.068;6.968;2023-01-26T01:54:37;101929.50;;;-1.36;100.00
3444;BME280;1736;52.068;6.968;2023-01-26T01:57:07;101927.69;;;-1.31;100.00
3444;BME280;1736;52.068;6.968;2023-01-26T01:59:42;101925.88;;;-1.29;100.00
3444;BME280;1736;52.068;6.968;2023-01-26T02:02:10;101937.19;;;-1.30;100.00
3444;BME280;1736;52.068;6.968;2023-01-26T02:04:37;101939.00;;;-1.33;100.00
3444;BME280;1736;52.068;6.968;2023-01-26T02:07:04;101932.88;;;-1.29;100.00
3444;BME280;1736;52.068;6.968;2023-01-26T02:09:34;101927.81;;;-1.38;100.00
3444;BME280;1736;52.068;6.968;2023-01-26T02:12:22;101921.56;;;-1.28;100.00
3444;BME280;1736;52.068;6.968;2023-01-26T02:14:51;101921.56;;;-1.28;100.00
3444;BME280;1736;52.068;6.968;2023-01-26T02:17:18;101920.59;;;-1.23;100.00
3444;BME280;1736;52.068;6.968;2023-01-26T02:19:50;101917.88;;;-1.15;100.00
3444;BME280;1736;52.068;6.968;2023-01-26T02:22:27;101911.81;;;-1.16;100.00
3444;BME280;1736;52.068;6.968;2023-01-26T02:25:12;101914.31;;;-1.11;100.00
3444;BME280;1736;52.068;6.968;2023-01-26T02:27:45;101922.28;;;-1.19;100.00
3444;BME280;1736;52.068;6.968;2023-01-26T02:30:13;101910.03;;;-1.15;100.00
3444;BME280;1736;52.068;6.968;2023-01-26T02:32:41;101901.44;;;-1.19;100.00
3444;BME280;1736;52.068;6.968;2023-01-26T02:35:08;101909.09;;;-1.10;100.00
3444;BME280;1736;52.068;6.968;2023-01-26T02:37:34;101902.19;;;-1.12;100.00
3444;BME280;1736;52.068;6.968;2023-01-26T02:40:06;101904.84;;;-1.17;100.00
3444;BME280;1736;52.068;6.968;2023-01-26T02:42:34;101900.59;;;-1.21;100.00
3444;BME280;1736;52.068;6.968;2023-01-26T02:45:07;101896.28;;;-1.22;100.00
3444;BME280;1736;52.068;6.968;2023-01-26T02:47:35;101895.44;;;-1.24;100.00
3444;BME280;1736;52.068;6.968;2023-01-26T02:50:01;101890.31;;;-1.28;100.00
3444;BME280;1736;52.068;6.968;2023-01-26T02:52:28;101890.25;;;-1.25;100.00
3444;BME280;1736;52.068;6.968;2023-01-26T02:54:56;101892.94;;;-1.30;100.00
3444;BME280;1736;52.068;6.968;2023-01-26T02:57:40;101884.22;;;-1.27;100.00
3444;BME280;1736;52.068;6.968;2023-01-26T03:00:10;101894.56;;;-1.23;100.00
3444;BME280;1736;52.068;6.968;2023-01-26T03:02:38;101898.91;;;-1.23;100.00
3444;BME280;1736;52.068;6.968;2023-01-26T03:05:06;101898.84;;;-1.20;100.00
3444;BME280;1736;52.068;6.968;2023-01-26T03:07:33;101910.91;;;-1.15;100.00
3444;BME280;1736;52.068;6.968;2023-01-26T03:10:00;101902.22;;;-1.15;100.00
3444;BME280;1736;52.068;6.968;2023-01-26T03:12:27;101900.50;;;-1.15;100.00
3444;BME280;1736;52.068;6.968;2023-01-26T03:14:53;101901.41;;;-1.16;100.00
3444;BME280;1736;52.068;6.968;2023-01-26T03:17:35;101895.28;;;-1.15;100.00
3444;BME280;1736;52.068;6.968;2023-01-26T03:20:03;101895.16;;;-1.09;100.00
3444;BME280;1736;52.068;6.968;2023-01-26T03:22:44;101897.91;;;-1.16;100.00
3444;BME280;1736;52.068;6.968;2023-01-26T03:25:33;101886.59;;;-1.14;100.00
3444;BME280;1736;52.068;6.968;2023-01-26T03:28:18;101883.06;;;-1.11;100.00
3444;BME280;1736;52.068;6.968;2023-01-26T03:30:47;101890.91;;;-1.13;100.00
3444;BME280;1736;52.068;6.968;2023-01-26T03:33:15;101888.22;;;-1.08;100.00
3444;BME280;1736;52.068;6.968;2023-01-26T03:35:41;101884.72;;;-1.06;100.00
3444;BME280;1736;52.068;6.968;2023-01-26T03:38:08;101880.28;;;-1.02;100.00
3444;BME280;1736;52.068;6.968;2023-01-26T03:40:34;101885.47;;;-1.01;100.00
3444;BME280;1736;52.068;6.968;2023-01-26T03:43:19;101879.53;;;-1.07;100.00
3444;BME280;1736;52.068;6.968;2023-01-26T03:46:04;101874.28;;;-1.06;100.00
3444;BME280;1736;52.068;6.968;2023-01-26T03:48:49;101868.25;;;-1.08;100.00
3444;BME280;1736;52.068;6.968;2023-01-26T03:51:33;101873.53;;;-1.11;100.00
3444;BME280;1736;52.068;6.968;2023-01-26T03:54:18;101883.84;;;-1.06;100.00
3444;BME280;1736;52.068;6.968;2023-01-26T03:57:03;101883.81;;;-1.05;100.00
3444;BME280;1736;52.068;6.968;2023-01-26T03:59:29;101880.28;;;-1.01;100.00
3444;BME280;1736;52.068;6.968;2023-01-26T04:02:06;101876.84;;;-1.03;100.00
3444;BME280;1736;52.068;6.968;2023-01-26T04:04:52;101881.22;;;-1.05;100.00
3444;BME280;1736;52.068;6.968;2023-01-26T04:07:36;101882.78;;;-0.95;100.00
3444;BME280;1736;52.068;6.968;2023-01-26T04:10:21;101885.38;;;-0.95;100.00
3444;BME280;1736;52.068;6.968;2023-01-26T04:12:48;101888.97;;;-1.02;100.00
3444;BME280;1736;52.068;6.968;2023-01-26T04:15:31;101894.97;;;-0.98;100.00
3444;BME280;1736;52.068;6.968;2023-01-26T04:18:16;101885.41;;;-0.96;100.00
3444;BME280;1736;52.068;6.968;2023-01-26T04:21:02;101888.75;;;-0.90;100.00
3444;BME280;1736;52.068;6.968;2023-01-26T04:23:46;101890.47;;;-0.89;100.00
3444;BME280;1736;52.068;6.968;2023-01-26T04:26:13;101892.03;;;-0.79;100.00
3444;BME280;1736;52.068;6.968;2023-01-26T04:28:40;101886.84;;;-0.79;100.00
3444;BME280;1736;52.068;6.968;2023-01-26T04:31:07;101885.03;;;-0.77;100.00
3444;BME280;1736;52.068;6.968;2023-01-26T04:33:34;101885.88;;;-0.73;100.00
3444;BME280;1736;52.068;6.968;2023-01-26T04:36:06;101877.19;;;-0.75;100.00
3444;BME280;1736;52.068;6.968;2023-01-26T04:38:33;101880.69;;;-0.76;100.00
3444;BME280;1736;52.068;6.968;2023-01-26T04:41:00;101874.53;;;-0.72;100.00
3444;BME280;1736;52.068;6.968;2023-01-26T04:43:26;101868.59;;;-0.79;100.00
3444;BME280;1736;52.068;6.968;2023-01-26T04:45:56;101864.25;;;-0.80;100.00
3444;BME280;1736;52.068;6.968;2023-01-26T04:48:24;101858.88;;;-0.71;100.00
3444;BME280;1736;52.068;6.968;2023-01-26T04:50:53;101864.97;;;-0.72;100.00
3444;BME280;1736;52.068;6.968;2023-01-26T04:53:21;101870.09;;;-0.67;100.00
3444;BME280;1736;52.068;6.968;2023-01-26T04:55:48;101868.44;;;-0.71;100.00
3444;BME280;1736;52.068;6.968;2023-01-26T04:58:14;101864.06;;;-0.69;100.00
3444;BME280;1736;52.068;6.968;2023-01-26T05:00:41;101862.25;;;-0.66;100.00
3444;BME280;1736;52.068;6.968;2023-01-26T05:03:08;101862.25;;;-0.66;100.00
3444;BME280;1736;52.068;6.968;2023-01-26T05:05:35;101867.34;;;-0.60;100.00
3444;BME280;1736;52.068;6.968;2023-01-26T05:08:02;101860.59;;;-0.70;100.00
3444;BME280;1736;52.068;6.968;2023-01-26T05:10:30;101862.25;;;-0.66;100.00
3444;BME280;1736;52.068;6.968;2023-01-26T05:12:57;101858.91;;;-0.72;100.00
3444;BME280;1736;52.068;6.968;2023-01-26T05:15:24;101864.09;;;-0.71;100.00
3444;BME280;1736;52.068;6.968;2023-01-26T05:17:50;101858.78;;;-0.66;100.00
3444;BME280;1736;52.068;6.968;2023-01-26T05:20:17;101864.00;;;-0.68;100.00
3444;BME280;1736;52.068;6.968;2023-01-26T05:22:44;101865.66;;;-0.64;100.00
3444;BME280;1736;52.068;6.968;2023-01-26T05:25:10;101852.69;;;-0.65;100.00
3444;BME280;1736;52.068;6.968;2023-01-26T05:27:38;101850.91;;;-0.63;100.00
3444;BME280;1736;52.068;6.968;2023-01-26T05:30:06;101852.56;;;-0.59;100.00
3444;BME280;1736;52.068;6.968;2023-01-26T05:32:32;101856.09;;;-0.62;100.00
3444;BME280;1736;52.068;6.968;2023-01-26T05:34:59;101854.28;;;-0.60;100.00
3444;BME280;1736;52.068;6.968;2023-01-26T05:37:26;101852.59;;;-0.61;100.00
3444;BME280;1736;52.068;6.968;2023-01-26T05:39:53;101851.69;;;-0.60;100.00
3444;BME280;1736;52.068;6.968;2023-01-26T05:42:20;101856.84;;;-0.57;100.00
3444;BME280;1736;52.068;6.968;2023-01-26T05:44:49;101854.13;;;-0.51;100.00
3444;BME280;1736;52.068;6.968;2023-01-26T05:47:15;101855.09;;;-0.55;100.00
3444;BME280;1736;52.068;6.968;2023-01-26T05:49:42;101850.81;;;-0.59;100.00
3444;BME280;1736;52.068;6.968;2023-01-26T05:52:12;101853.34;;;-0.56;100.00
3444;BME280;1736;52.068;6.968;2023-01-26T05:54:39;101855.09;;;-0.55;100.00
3444;BME280;1736;52.068;6.968;2023-01-26T05:57:06;101855.00;;;-0.52;100.00
3444;BME280;1736;52.068;6.968;2023-01-26T05:59:33;101854.94;;;-0.49;100.00
3444;BME280;1736;52.068;6.968;2023-01-26T06:02:01;101855.72;;;-0.44;100.00
3444;BME280;1736;52.068;6.968;2023-01-26T06:04:27;101857.47;;;-0.44;100.00
3444;BME280;1736;52.068;6.968;2023-01-26T06:06:55;101855.72;;;-0.45;100.00
3444;BME280;1736;52.068;6.968;2023-01-26T06:09:23;101859.13;;;-0.40;100.00
3444;BME280;1736;52.068;6.968;2023-01-26T06:11:49;101863.66;;;-0.50;100.00
3444;BME280;1736;52.068;6.968;2023-01-26T06:14:16;101863.53;;;-0.44;100.00
3444;BME280;1736;52.068;6.968;2023-01-26T06:16:42;101861.75;;;-0.42;100.00
3444;BME280;1736;52.068;6.968;2023-01-26T06:19:10;101860.09;;;-0.46;100.00
3444;BME280;1736;52.068;6.968;2023-01-26T06:21:37;101854.91;;;-0.46;100.00
3444;BME280;1736;52.068;6.968;2023-01-26T06:24:05;101854.00;;;-0.45;100.00
3444;BME280;1736;52.068;6.968;2023-01-26T06:26:31;101850.69;;;-0.53;100.00
3444;BME280;1736;52.068;6.968;2023-01-26T06:28:58;101859.25;;;-0.46;100.00
3444;BME280;1736;52.068;6.968;2023-01-26T06:31:25;101854.94;;;-0.49;100.00
3444;BME280;1736;52.068;6.968;2023-01-26T06:33:53;101860.19;;;-0.50;100.00
3444;BME280;1736;52.068;6.968;2023-01-26T06:36:21;101850.53;;;-0.45;100.00
3444;BME280;1736;52.068;6.968;2023-01-26T06:38:49;101856.66;;;-0.48;100.00
3444;BME280;1736;52.068;6.968;2023-01-26T06:41:17;101864.44;;;-0.45;100.00
3444;BME280;1736;52.068;6.968;2023-01-26T06:43:45;101862.72;;;-0.46;100.00
3444;BME280;1736;52.068;6.968;2023-01-26T06:46:12;101861.00;;;-0.47;100.00
3444;BME280;1736;52.068;6.968;2023-01-26T06:48:38;101864.47;;;-0.46;100.00
3444;BME280;1736;52.068;6.968;2023-01-26T06:54:04;101864.47;;;-0.48;100.00
3444;BME280;1736;52.068;6.968;2023-01-26T06:56:31;101865.34;;;-0.47;100.00
3444;BME280;1736;52.068;6.968;2023-01-26T06:58:57;101870.53;;;-0.46;100.00
3444;BME280;1736;52.068;6.968;2023-01-26T07:01:25;101873.97;;;-0.44;100.00
3444;BME280;1736;52.068;6.968;2023-01-26T07:03:53;101882.56;;;-0.39;100.00
3444;BME280;1736;52.068;6.968;2023-01-26T07:06:20;101881.75;;;-0.42;100.00
3444;BME280;1736;52.068;6.968;2023-01-26T07:08:47;101875.63;;;-0.40;100.00
3444;BME280;1736;52.068;6.968;2023-01-26T07:11:15;101871.25;;;-0.38;100.00
3444;BME280;1736;52.068;6.968;2023-01-26T07:13:41;101883.47;;;-0.41;100.00
3444;BME280;1736;52.068;6.968;2023-01-26T07:16:10;101876.28;;;-0.30;100.00
3444;BME280;1736;52.068;6.968;2023-01-26T07:18:37;101883.38;;;-0.37;100.00
3444;BME280;1736;52.068;6.968;2023-01-26T07:21:05;101880.84;;;-0.40;100.00
3444;BME280;1736;52.068;6.968;2023-01-26T07:23:32;101884.28;;;-0.38;100.00
3444;BME280;1736;52.068;6.968;2023-01-26T07:25:58;101881.69;;;-0.38;100.00
3444;BME280;1736;52.068;6.968;2023-01-26T07:28:26;101876.53;;;-0.42;100.00
3444;BME280;1736;52.068;6.968;2023-01-26T07:30:56;101874.75;;;-0.39;100.00
3444;BME280;1736;52.068;6.968;2023-01-26T07:33:23;101879.91;;;-0.37;100.00
3444;BME280;1736;52.068;6.968;2023-01-26T07:35:51;101885.25;;;-0.42;100.00
3444;BME280;1736;52.068;6.968;2023-01-26T07:38:18;101894.75;;;-0.39;100.00
3444;BME280;1736;52.068;6.968;2023-01-26T07:40:44;101895.53;;;-0.36;100.00
3444;BME280;1736;52.068;6.968;2023-01-26T07:43:11;101903.44;;;-0.39;100.00
3444;BME280;1736;52.068;6.968;2023-01-26T07:45:43;101902.50;;;-0.35;100.00
3444;BME280;1736;52.068;6.968;2023-01-26T07:48:10;101903.38;;;-0.37;100.00
3444;BME280;1736;52.068;6.968;2023-01-26T07:50:37;101905.97;;;-0.36;100.00
3444;BME280;1736;52.068;6.968;2023-01-26T07:53:03;101903.16;;;-0.27;100.00
3444;BME280;1736;52.068;6.968;2023-01-26T07:55:30;101903.25;;;-0.30;100.00
3444;BME280;1736;52.068;6.968;2023-01-26T07:57:57;101908.38;;;-0.27;100.00
3444;BME280;1736;52.068;6.968;2023-01-26T08:00:24;101910.19;;;-0.29;100.00
3444;BME280;1736;52.068;6.968;2023-01-26T08:02:52;101903.16;;;-0.27;100.00
3444;BME280;1736;52.068;6.968;2023-01-26T08:05:18;101898.75;;;-0.23;100.00
3444;BME280;1736;52.068;6.968;2023-01-26T08:07:45;101898.75;;;-0.23;100.00
3444;BME280;1736;52.068;6.968;2023-01-26T08:10:11;101901.34;;;-0.22;100.00
3444;BME280;1736;52.068;6.968;2023-01-26T08:12:38;101902.31;;;-0.27;100.00
3444;BME280;1736;52.068;6.968;2023-01-26T08:15:06;101906.47;;;-0.19;100.00
3444;BME280;1736;52.068;6.968;2023-01-26T08:17:32;101902.16;;;-0.20;100.00
3444;BME280;1736;52.068;6.968;2023-01-26T08:20:00;101895.19;;;-0.19;100.00
3444;BME280;1736;52.068;6.968;2023-01-26T08:22:27;101908.22;;;-0.18;100.00
3444;BME280;1736;52.068;6.968;2023-01-26T08:24:54;101898.63;;;-0.17;100.00
3444;BME280;1736;52.068;6.968;2023-01-26T08:27:20;101902.06;;;-0.15;100.00
3444;BME280;1736;52.068;6.968;2023-01-26T08:29:47;101893.31;;;-0.13;100.00
3444;BME280;1736;52.068;6.968;2023-01-26T08:32:15;101900.22;;;-0.10;100.00
3444;BME280;1736;52.068;6.968;2023-01-26T08:34:42;101901.16;;;-0.14;100.00
3444;BME280;1736;52.068;6.968;2023-01-26T08:37:10;101905.44;;;-0.10;100.00
3444;BME280;1736;52.068;6.968;2023-01-26T08:39:36;101902.84;;;-0.10;100.00
3444;BME280;1736;52.068;6.968;2023-01-26T08:42:03;101904.56;;;-0.11;100.00
3444;BME280;1736;52.068;6.968;2023-01-26T08:44:29;101907.13;;;-0.08;100.00
3444;BME280;1736;52.068;6.968;2023-01-26T08:46:56;101907.97;;;-0.06;100.00
3444;BME280;1736;52.068;6.968;2023-01-26T08:49:22;101909.78;;;-0.11;100.00
3444;BME280;1736;52.068;6.968;2023-01-26T08:51:49;101914.94;;;-0.08;100.00
3444;BME280;1736;52.068;6.968;2023-01-26T08:54:18;101913.25;;;-0.09;100.00
3444;BME280;1736;52.068;6.968;2023-01-26T08:56:44;101917.63;;;-0.11;100.00
3444;BME280;1736;52.068;6.968;2023-01-26T08:59:11;101913.22;;;-0.07;100.00
3444;BME280;1736;52.068;6.968;2023-01-26T09:01:37;101914.75;;;0.01;100.00
3444;BME280;1736;52.068;6.968;2023-01-26T09:04:04;101916.44;;;0.04;100.00
3444;BME280;1736;52.068;6.968;2023-01-26T09:06:30;101918.25;;;0.00;100.00
3444;BME280;1736;52.068;6.968;2023-01-26T09:08:58;101916.56;;;-0.01;100.00
3444;BME280;1736;52.068;6.968;2023-01-26T09:11:26;101919.97;;;0.01;100.00
3444;BME280;1736;52.068;6.968;2023-01-26T09:13:52;101918.19;;;0.05;100.00
3444;BME280;1736;52.068;6.968;2023-01-26T09:16:22;101910.41;;;0.02;100.00
3444;BME280;1736;52.068;6.968;2023-01-26T09:18:49;101918.94;;;0.10;100.00
3444;BME280;1736;52.068;6.968;2023-01-26T09:21:16;101910.16;;;0.13;100.00
3444;BME280;1736;52.068;6.968;2023-01-26T09:23:43;101910.09;;;0.17;100.00
3444;BME280;1736;52.068;6.968;2023-01-26T09:26:10;101917.06;;;0.15;100.00
3444;BME280;1736;52.068;6.968;2023-01-26T09:28:38;101921.31;;;0.21;100.00
3444;BME280;1736;52.068;6.968;2023-01-26T09:31:06;101918.69;;;0.21;100.00
3444;BME280;1736;52.068;6.968;2023-01-26T09:33:34;101921.34;;;0.19;100.00
3444;BME280;1736;52.068;6.968;2023-01-26T09:36:03;101920.38;;;0.23;100.00
3444;BME280;1736;52.068;6.968;2023-01-26T09:38:30;101916.78;;;0.29;100.00
3444;BME280;1736;52.068;6.968;2023-01-26T09:41:02;101917.53;;;0.34;100.00
3444;BME280;1736;52.068;6.968;2023-01-26T09:43:35;101913.00;;;0.40;100.00
3444;BME280;1736;52.068;6.968;2023-01-26T09:46:14;101919.19;;;0.36;100.00
3444;BME280;1736;52.068;6.968;2023-01-26T09:48:47;101918.25;;;0.39;100.00
3444;BME280;1736;52.068;6.968;2023-01-26T09:51:19;101919.16;;;0.38;100.00
3444;BME280;1736;52.068;6.968;2023-01-26T09:53:52;101918.25;;;0.40;100.00
3444;BME280;1736;52.068;6.968;2023-01-26T09:56:22;101925.25;;;0.38;100.00
3444;BME280;1736;52.068;6.968;2023-01-26T09:58:55;101922.53;;;0.43;100.00
3444;BME280;1736;52.068;6.968;2023-01-26T10:01:28;101915.53;;;0.45;100.00
3444;BME280;1736;52.068;6.968;2023-01-26T10:04:03;101911.06;;;0.50;100.00
3444;BME280;1736;52.068;6.968;2023-01-26T10:06:31;101903.16;;;0.53;100.00
3444;BME280;1736;52.068;6.968;2023-01-26T10:09:01;101909.16;;;0.56;100.00
3444;BME280;1736;52.068;6.968;2023-01-26T10:11:33;101903.00;;;0.59;100.00
3444;BME280;1736;52.068;6.968;2023-01-26T10:14:06;101908.13;;;0.63;100.00
3444;BME280;1736;52.068;6.968;2023-01-26T10:16:36;101903.63;;;0.70;100.00
3444;BME280;1736;52.068;6.968;2023-01-26T10:19:05;101900.69;;;0.82;100.00
3444;BME280;1736;52.068;6.968;2023-01-26T10:21:37;101894.56;;;0.83;100.00
3444;BME280;1736;52.068;6.968;2023-01-26T10:24:08;101896.88;;;0.95;100.00
3444;BME280;1736;52.068;6.968;2023-01-26T10:26:36;101892.63;;;0.91;100.00
3444;BME280;1736;52.068;6.968;2023-01-26T10:29:03;101889.88;;;0.97;100.00
3444;BME280;1736;52.068;6.968;2023-01-26T10:31:32;101899.09;;;1.11;100.00
3444;BME280;1736;52.068;6.968;2023-01-26T10:34:12;101894.88;;;1.06;100.00
3444;BME280;1736;52.068;6.968;2023-01-26T10:36:40;101892.91;;;1.14;100.00
3444;BME280;1736;52.068;6.968;2023-01-26T10:39:08;101891.81;;;1.22;100.00
3444;BME280;1736;52.068;6.968;2023-01-26T10:41:36;101886.41;;;1.28;100.00
3444;BME280;1736;52.068;6.968;2023-01-26T10:44:20;101888.47;;;1.16;100.00
3444;BME280;1736;52.068;6.968;2023-01-26T10:47:01;101893.59;;;1.20;100.00
3444;BME280;1736;52.068;6.968;2023-01-26T10:49:30;101896.25;;;1.19;100.00
3444;BME280;1736;52.068;6.968;2023-01-26T10:52:10;101898.13;;;1.14;100.00
3444;BME280;1736;52.068;6.968;2023-01-26T10:54:40;101890.22;;;1.17;100.00
3444;BME280;1736;52.068;6.968;2023-01-26T10:57:17;101894.63;;;1.15;100.00
3444;BME280;1736;52.068;6.968;2023-01-26T10:59:52;101899.91;;;1.12;100.00
3444;BME280;1736;52.068;6.968;2023-01-26T11:02:23;101885.69;;;1.23;100.00
3444;BME280;1736;52.068;6.968;2023-01-26T11:05:17;101892.69;;;1.21;100.00
3444;BME280;1736;52.068;6.968;2023-01-26T11:07:45;101885.72;;;1.22;100.00
3444;BME280;1736;52.068;6.968;2023-01-26T11:10:16;101881.16;;;1.30;100.00
3444;BME280;1736;52.068;6.968;2023-01-26T11:12:44;101890.44;;;1.40;100.00
3444;BME280;1736;52.068;6.968;2023-01-26T11:15:16;101894.94;;;1.35;100.00
3444;BME280;1736;52.068;6.968;2023-01-26T11:17:49;101891.25;;;1.43;100.00
3444;BME280;1736;52.068;6.968;2023-01-26T11:20:37;101888.41;;;1.51;100.00
3444;BME280;1736;52.068;6.968;2023-01-26T11:23:12;101891.59;;;1.62;100.00
3444;BME280;1736;52.068;6.968;2023-01-26T11:25:46;101897.78;;;1.59;100.00
3444;BME280;1736;52.068;6.968;2023-01-26T11:28:31;101883.47;;;1.71;100.00
3444;BME280;1736;52.068;6.968;2023-01-26T11:31:19;101887.63;;;1.78;100.00
3444;BME280;1736;52.068;6.968;2023-01-26T11:33:54;101881.31;;;1.85;100.00
3444;BME280;1736;52.068;6.968;2023-01-26T11:36:37;101884.00;;;1.83;100.00
3444;BME280;1736;52.068;6.968;2023-01-26T11:39:15;101873.38;;;1.88;100.00
3444;BME280;1736;52.068;6.968;2023-01-26T11:41:52;101885.47;;;1.92;100.00
3444;BME280;1736;52.068;6.968;2023-01-26T11:44:32;101870.44;;;1.98;100.00
3444;BME280;1736;52.068;6.968;2023-01-26T11:47:27;101873.28;;;1.91;100.00
3444;BME280;1736;52.068;6.968;2023-01-26T11:50:16;101873.59;;;2.09;100.00
3444;BME280;1736;52.068;6.968;2023-01-26T11:52:52;101872.06;;;2.30;100.00
3444;BME280;1736;52.068;6.968;2023-01-26T11:55:28;101871.22;;;2.29;100.00
3444;BME280;1736;52.068;6.968;2023-01-26T11:58:04;101871.97;;;2.33;100.00
3444;BME280;1736;52.068;6.968;2023-01-26T12:00:38;101862.59;;;2.26;100.00
3444;BME280;1736;52.068;6.968;2023-01-26T12:03:15;101859.72;;;2.35;100.00
3444;BME280;1736;52.068;6.968;2023-01-26T12:05:45;101858.13;;;2.29;100.00
3444;BME280;1736;52.068;6.968;2023-01-26T12:08:21;101852.94;;;2.28;100.00
3444;BME280;1736;52.068;6.968;2023-01-26T12:10:57;101857.44;;;2.24;100.00
3444;BME280;1736;52.068;6.968;2023-01-26T12:13:48;101859.72;;;2.35;100.00
3444;BME280;1736;52.068;6.968;2023-01-26T12:16:23;101850.69;;;2.43;100.00
3444;BME280;1736;52.068;6.968;2023-01-26T12:18:56;101855.34;;;2.61;100.00
3444;BME280;1736;52.068;6.968;2023-01-26T12:21:25;101853.69;;;2.59;100.00
3444;BME280;1736;52.068;6.968;2023-01-26T12:24:00;101855.91;;;2.71;100.00
3444;BME280;1736;52.068;6.968;2023-01-26T12:26:31;101846.34;;;2.94;100.00
3444;BME280;1736;52.068;6.968;2023-01-26T12:29:02;101849.34;;;3.08;100.00
3444;BME280;1736;52.068;6.968;2023-01-26T12:31:37;101839.69;;;3.10;100.00
3444;BME280;1736;52.068;6.968;2023-01-26T12:34:08;101840.13;;;3.21;100.00
3444;BME280;1736;52.068;6.968;2023-01-26T12:36:41;101844.84;;;3.36;100.00
3444;BME280;1736;52.068;6.968;2023-01-26T12:39:15;101831.13;;;3.53;100.00
3444;BME280;1736;52.068;6.968;2023-01-26T12:42:16;101832.72;;;3.57;100.00
3444;BME280;1736;52.068;6.968;2023-01-26T12:44:46;101831.19;;;3.74;100.00
3444;BME280;1736;52.068;6.968;2023-01-26T12:47:20;101826.56;;;3.81;100.00
3444;BME280;1736;52.068;6.968;2023-01-26T12:49:53;101824.09;;;3.99;100.00
3444;BME280;1736;52.068;6.968;2023-01-26T12:52:27;101824.03;;;4.01;100.00
3444;BME280;1736;52.068;6.968;2023-01-26T12:55:02;101817.44;;;4.12;100.00
3444;BME280;1736;52.068;6.968;2023-01-26T12:57:33;101816.63;;;4.32;100.00
3444;BME280;1736;52.068;6.968;2023-01-26T13:00:04;101815.91;;;4.28;100.00
3444;BME280;1736;52.068;6.968;2023-01-26T13:02:34;101812.69;;;4.43;100.00
3444;BME280;1736;52.068;6.968;2023-01-26T13:05:03;101813.28;;;4.50;100.00
3444;BME280;1736;52.068;6.968;2023-01-26T13:07:32;101807.09;;;4.51;100.00
3444;BME280;1736;52.068;6.968;2023-01-26T13:10:25;101798.94;;;4.57;100.00
3444;BME280;1736;52.068;6.968;2023-01-26T13:12:54;101798.78;;;4.61;100.00
3444;BME280;1736;52.068;6.968;2023-01-26T13:15:22;101805.22;;;4.74;100.00
3444;BME280;1736;52.068;6.968;2023-01-26T13:17:52;101805.16;;;4.76;100.00
3444;BME280;1736;52.068;6.968;2023-01-26T13:20:43;101800.72;;;4.78;100.00
3444;BME280;1736;52.068;6.968;2023-01-26T13:23:40;101797.66;;;4.67;100.00